createdAt,value
2022-08-16T00:00:03.404Z,6.72
2022-08-16T00:01:06.471Z,6.63
2022-08-16T00:02:11.953Z,7.25
2022-08-16T00:03:17.669Z,6.35
2022-08-16T00:04:20.311Z,5.90
2022-08-16T00:05:25.031Z,6.22
2022-08-16T00:06:29.270Z,6.78
2022-08-16T00:07:31.028Z,5.80
2022-08-16T00:08:36.815Z,6.20
2022-08-16T00:09:39.124Z,6.15
2022-08-16T00:10:46.186Z,6.22
2022-08-16T00:11:48.387Z,5.95
2022-08-16T00:12:55.568Z,5.95
2022-08-16T00:13:57.621Z,5.85
2022-08-16T00:15:05.533Z,5.93
2022-08-16T00:17:00.906Z,5.75
2022-08-16T00:17:56.094Z,5.60
2022-08-16T00:18:59.759Z,5.90
2022-08-16T00:20:02.718Z,6.43
2022-08-16T00:21:05.756Z,5.53
2022-08-16T00:22:13.830Z,5.20
2022-08-16T00:23:17.105Z,6.38
2022-08-16T00:24:32.808Z,6.32
2022-08-16T00:26:35.540Z,6.10
2022-08-16T00:27:00.294Z,6.40
2022-08-16T00:28:03.475Z,5.35
2022-08-16T00:29:06.097Z,5.97
2022-08-16T00:30:19.719Z,6.32
2022-08-16T00:31:47.245Z,5.93
2022-08-16T00:32:57.039Z,5.93
2022-08-16T00:33:59.042Z,6.13
2022-08-16T00:35:03.325Z,5.30
2022-08-16T00:36:15.283Z,6.00
2022-08-16T00:37:20.349Z,5.82
2022-08-16T00:38:40.941Z,5.85
2022-08-16T00:39:45.357Z,5.88
2022-08-16T00:40:54.088Z,5.70
2022-08-16T00:41:56.268Z,6.10
2022-08-16T00:43:00.418Z,5.40
2022-08-16T00:44:14.360Z,6.25
2022-08-16T00:45:26.711Z,6.13
2022-08-16T00:46:33.699Z,5.57
2022-08-16T00:47:49.561Z,5.82
2022-08-16T00:48:52.272Z,6.18
2022-08-16T00:49:56.465Z,6.38
2022-08-16T00:50:59.036Z,6.57
2022-08-16T00:52:02.509Z,5.60
2022-08-16T00:53:05.167Z,6.20
2022-08-16T00:54:08.190Z,6.40
2022-08-16T00:55:13.999Z,5.78
2022-08-16T00:56:56.726Z,6.03
2022-08-16T00:57:59.903Z,6.65
2022-08-16T00:59:05.512Z,6.65
2022-08-16T01:00:09.108Z,6.65
2022-08-16T01:01:13.457Z,7.25
2022-08-16T01:02:31.003Z,6.78
2022-08-16T01:03:36.429Z,6.57
2022-08-16T01:04:38.148Z,6.88
2022-08-16T01:05:43.201Z,6.97
2022-08-16T01:06:49.493Z,7.00
2022-08-16T01:08:35.109Z,7.20
2022-08-16T01:09:33.573Z,6.50
2022-08-16T01:10:36.315Z,6.75
2022-08-16T01:11:53.930Z,7.57
2022-08-16T01:12:57.078Z,6.32
2022-08-16T01:14:09.218Z,6.32
2022-08-16T01:15:13.229Z,6.43
2022-08-16T01:16:19.866Z,6.75
2022-08-16T01:17:24.103Z,7.05
2022-08-16T01:18:40.242Z,6.93
2022-08-16T01:19:47.836Z,7.20
2022-08-16T01:20:54.715Z,6.05
2022-08-16T01:22:47.079Z,6.65
2022-08-16T01:24:01.036Z,7.15
2022-08-16T01:24:55.647Z,5.88
2022-08-16T01:25:59.918Z,6.82
2022-08-16T01:27:23.599Z,7.32
2022-08-16T01:28:30.834Z,8.00
2022-08-16T01:29:57.989Z,7.10
2022-08-16T01:31:00.602Z,6.68
2022-08-16T01:32:02.605Z,7.10
2022-08-16T01:33:15.214Z,8.02
2022-08-16T01:34:23.267Z,8.50
2022-08-16T01:35:30.745Z,7.40
2022-08-16T01:36:37.112Z,8.32
2022-08-16T01:37:42.762Z,8.38
2022-08-16T01:38:47.062Z,8.32
2022-08-16T01:39:56.980Z,8.30
2022-08-16T01:41:02.027Z,7.57
2022-08-16T01:42:12.140Z,7.97
2022-08-16T01:43:15.280Z,7.38
2022-08-16T01:44:18.577Z,8.90
2022-08-16T01:45:20.876Z,8.05
2022-08-16T01:46:37.073Z,7.55
2022-08-16T01:47:49.247Z,8.50
2022-08-16T01:48:56.152Z,7.43
2022-08-16T01:50:43.165Z,8.23
2022-08-16T01:51:21.354Z,7.50
2022-08-16T01:52:28.188Z,7.05
2022-08-16T01:53:33.288Z,7.93
2022-08-16T01:54:37.429Z,7.10
2022-08-16T01:55:42.830Z,8.00
2022-08-16T01:56:57.244Z,7.43
2022-08-16T01:57:58.863Z,8.45
2022-08-16T01:59:04.953Z,8.40
2022-08-16T02:00:18.945Z,7.95
2022-08-16T02:01:22.478Z,7.72
2022-08-16T02:02:28.478Z,7.97
2022-08-16T02:03:31.443Z,8.10
2022-08-16T02:04:49.449Z,7.47
2022-08-16T02:05:56.334Z,7.88
2022-08-16T02:07:00.318Z,7.85
2022-08-16T02:08:02.312Z,7.78
2022-08-16T02:09:05.569Z,8.63
2022-08-16T02:10:08.797Z,8.30
2022-08-16T02:11:13.647Z,8.20
2022-08-16T02:12:42.122Z,7.65
2022-08-16T02:13:41.925Z,7.85
2022-08-16T02:14:44.016Z,8.82
2022-08-16T02:15:46.918Z,8.20
2022-08-16T02:16:52.754Z,7.15
2022-08-16T02:17:55.630Z,6.93
2022-08-16T02:18:57.277Z,8.23
2022-08-16T02:20:00.835Z,8.30
2022-08-16T02:21:04.187Z,7.82
2022-08-16T02:22:34.268Z,9.30
2022-08-16T02:23:33.019Z,7.38
2022-08-16T02:24:40.946Z,8.55
2022-08-16T02:25:50.904Z,8.30
2022-08-16T02:26:56.293Z,7.82
2022-08-16T02:27:59.895Z,8.32
2022-08-16T02:29:02.039Z,8.18
2022-08-16T02:30:07.683Z,8.38
2022-08-16T02:31:13.412Z,8.30
2022-08-16T02:32:49.829Z,8.20
2022-08-16T02:33:44.676Z,8.23
2022-08-16T02:34:56.302Z,8.20
2022-08-16T02:35:59.951Z,7.32
2022-08-16T02:37:03.334Z,8.95
2022-08-16T02:38:08.859Z,8.85
2022-08-16T02:39:16.529Z,8.80
2022-08-16T02:40:18.571Z,9.05
2022-08-16T02:41:21.329Z,8.10
2022-08-16T02:42:25.372Z,8.07
2022-08-16T02:43:33.131Z,7.38
2022-08-16T02:44:35.009Z,7.60
2022-08-16T02:45:38.571Z,7.88
2022-08-16T02:46:40.405Z,8.07
2022-08-16T02:48:01.488Z,7.65
2022-08-16T02:49:16.059Z,7.70
2022-08-16T02:50:54.329Z,7.70
2022-08-16T02:51:42.942Z,8.85
2022-08-16T02:52:44.703Z,8.10
2022-08-16T02:53:48.762Z,8.73
2022-08-16T02:54:55.721Z,8.82
2022-08-16T02:55:58.918Z,8.27
2022-08-16T02:57:01.139Z,7.15
2022-08-16T02:58:05.372Z,7.15
2022-08-16T02:59:09.638Z,7.57
2022-08-16T03:00:33.739Z,7.35
2022-08-16T03:01:39.044Z,7.55
2022-08-16T03:02:42.215Z,7.07
2022-08-16T03:04:39.241Z,7.55
2022-08-16T03:05:09.376Z,7.15
2022-08-16T03:06:42.156Z,7.05
2022-08-16T03:07:36.976Z,7.03
2022-08-16T03:08:51.858Z,7.72
2022-08-16T03:09:56.258Z,6.72
2022-08-16T03:11:02.428Z,7.90
2022-08-16T03:12:06.249Z,6.30
2022-08-16T03:13:12.186Z,6.57
2022-08-16T03:14:21.191Z,6.82
2022-08-16T03:15:27.748Z,6.97
2022-08-16T03:16:38.222Z,6.97
2022-08-16T03:17:52.965Z,6.47
2022-08-16T03:18:56.878Z,5.80
2022-08-16T03:20:02.393Z,6.13
2022-08-16T03:21:07.172Z,6.72
2022-08-16T03:22:19.342Z,6.10
2022-08-16T03:23:35.630Z,6.18
2022-08-16T03:24:37.783Z,5.63
2022-08-16T03:25:44.198Z,5.57
2022-08-16T03:26:46.421Z,6.15
2022-08-16T03:27:49.067Z,5.97
2022-08-16T03:28:53.164Z,6.07
2022-08-16T03:29:55.778Z,7.13
2022-08-16T03:30:58.407Z,6.30
2022-08-16T03:32:03.777Z,6.45
2022-08-16T03:33:07.467Z,6.57
2022-08-16T03:34:09.887Z,5.93
2022-08-16T03:35:17.540Z,6.00
2022-08-16T03:36:30.826Z,6.32
2022-08-16T03:38:01.911Z,6.05
2022-08-16T03:38:58.345Z,6.53
2022-08-16T03:40:02.977Z,5.57
2022-08-16T03:41:14.308Z,5.93
2022-08-16T03:42:27.531Z,6.00
2022-08-16T03:43:51.135Z,5.72
2022-08-16T03:45:03.989Z,6.15
2022-08-16T03:46:07.384Z,5.80
2022-08-16T03:47:12.268Z,5.75
2022-08-16T03:48:18.213Z,5.78
2022-08-16T03:49:22.424Z,5.72
2022-08-16T03:50:26.883Z,5.93
2022-08-16T03:51:28.635Z,6.38
2022-08-16T03:52:31.854Z,5.68
2022-08-16T03:53:37.373Z,5.97
2022-08-16T03:54:53.161Z,6.35
2022-08-16T03:55:55.907Z,6.13
2022-08-16T03:57:00.153Z,5.82
2022-08-16T03:58:01.876Z,5.15
2022-08-16T03:59:05.031Z,5.38
2022-08-16T04:00:35.848Z,6.32
2022-08-16T04:01:36.649Z,6.63
2022-08-16T04:02:38.450Z,6.25
2022-08-16T04:03:42.951Z,6.50
2022-08-16T04:04:46.807Z,5.80
2022-08-16T04:05:51.219Z,6.28
2022-08-16T04:06:55.850Z,6.35
2022-08-16T04:07:58.527Z,5.78
2022-08-16T04:09:00.785Z,6.25
2022-08-16T04:10:35.537Z,5.78
2022-08-16T04:11:26.768Z,6.25
2022-08-16T04:12:54.601Z,6.57
2022-08-16T04:14:08.827Z,6.00
2022-08-16T04:15:21.915Z,6.13
2022-08-16T04:16:27.206Z,6.30
2022-08-16T04:17:30.027Z,6.03
2022-08-16T04:18:32.947Z,6.45
2022-08-16T04:19:35.390Z,6.80
2022-08-16T04:20:38.876Z,7.00
2022-08-16T04:21:47.337Z,7.35
2022-08-16T04:22:50.510Z,5.90
2022-08-16T04:23:52.375Z,6.72
2022-08-16T04:24:59.099Z,5.55
2022-08-16T04:26:01.868Z,5.60
2022-08-16T04:27:05.539Z,6.15
2022-08-16T04:28:29.218Z,6.57
2022-08-16T04:29:46.035Z,6.20
2022-08-16T04:30:50.439Z,6.32
2022-08-16T04:31:56.544Z,6.15
2022-08-16T04:33:00.404Z,6.43
2022-08-16T04:34:03.056Z,5.55
2022-08-16T04:35:09.309Z,5.95
2022-08-16T04:36:20.201Z,6.22
2022-08-16T04:37:22.273Z,5.18
2022-08-16T04:38:25.578Z,6.35
2022-08-16T04:39:37.084Z,6.72
2022-08-16T04:40:50.063Z,5.43
2022-08-16T04:41:56.827Z,6.43
2022-08-16T04:43:01.165Z,5.53
2022-08-16T04:44:03.229Z,5.45
2022-08-16T04:45:36.185Z,6.22
2022-08-16T04:47:02.379Z,5.80
2022-08-16T04:48:03.408Z,6.50
2022-08-16T04:49:05.096Z,5.90
2022-08-16T04:50:10.002Z,5.78
2022-08-16T04:51:12.837Z,5.45
2022-08-16T04:52:33.693Z,6.28
2022-08-16T04:53:41.319Z,5.88
2022-08-16T04:54:43.347Z,6.20
2022-08-16T04:55:45.951Z,6.38
2022-08-16T04:56:48.750Z,6.45
2022-08-16T04:57:53.518Z,5.70
2022-08-16T04:58:57.771Z,5.88
2022-08-16T05:00:31.134Z,5.65
2022-08-16T05:01:23.239Z,5.53
2022-08-16T05:02:48.803Z,5.60
2022-08-16T05:03:59.705Z,5.97
2022-08-16T05:05:03.634Z,6.47
2022-08-16T05:06:07.138Z,5.90
2022-08-16T05:07:20.497Z,5.60
2022-08-16T05:08:28.068Z,5.95
2022-08-16T05:09:31.732Z,5.82
2022-08-16T05:10:39.274Z,5.38
2022-08-16T05:11:40.891Z,5.47
2022-08-16T05:12:44.870Z,6.43
2022-08-16T05:13:47.787Z,5.68
2022-08-16T05:15:02.029Z,6.60
2022-08-16T05:16:05.144Z,6.00
2022-08-16T05:17:08.826Z,5.28
2022-08-16T05:18:15.784Z,5.40
2022-08-16T05:19:19.187Z,6.22
2022-08-16T05:20:38.603Z,5.68
2022-08-16T05:21:43.896Z,4.70
2022-08-16T05:22:45.655Z,5.85
2022-08-16T05:23:55.925Z,5.03
2022-08-16T05:25:00.562Z,5.18
2022-08-16T05:26:03.197Z,5.13
2022-08-16T05:27:11.474Z,5.30
2022-08-16T05:28:14.741Z,5.22
2022-08-16T05:29:17.244Z,5.35
2022-08-16T05:30:35.069Z,5.20
2022-08-16T05:31:44.283Z,4.80
2022-08-16T05:32:55.389Z,4.55
2022-08-16T05:34:03.012Z,5.28
2022-08-16T05:35:07.753Z,5.25
2022-08-16T05:36:14.702Z,4.97
2022-08-16T05:37:16.409Z,5.55
2022-08-16T05:38:32.428Z,5.47
2022-08-16T05:39:41.734Z,5.20
2022-08-16T05:40:43.428Z,5.50
2022-08-16T05:42:02.389Z,5.05
2022-08-16T05:43:04.808Z,5.30
2022-08-16T05:44:23.777Z,5.80
2022-08-16T05:45:26.463Z,4.63
2022-08-16T05:46:31.159Z,4.82
2022-08-16T05:47:33.384Z,5.10
2022-08-16T05:48:46.310Z,4.95
2022-08-16T05:49:59.252Z,5.28
2022-08-16T05:51:00.876Z,4.20
2022-08-16T05:52:05.316Z,5.03
2022-08-16T05:53:15.495Z,4.60
2022-08-16T05:54:24.787Z,4.60
2022-08-16T05:55:27.079Z,4.25
2022-08-16T05:56:32.661Z,5.50
2022-08-16T05:57:38.524Z,4.70
2022-08-16T05:58:43.621Z,5.43
2022-08-16T05:59:47.278Z,5.53
2022-08-16T06:00:52.150Z,5.65
2022-08-16T06:01:54.927Z,5.35
2022-08-16T06:02:57.653Z,5.72
2022-08-16T06:04:02.828Z,5.30
2022-08-16T06:05:06.707Z,5.55
2022-08-16T06:06:14.097Z,5.28
2022-08-16T06:07:31.915Z,5.35
2022-08-16T06:08:44.825Z,5.57
2022-08-16T06:09:48.951Z,6.07
2022-08-16T06:11:02.803Z,5.32
2022-08-16T06:12:27.320Z,5.70
2022-08-16T06:13:32.557Z,5.80
2022-08-16T06:14:35.441Z,5.63
2022-08-16T06:15:37.971Z,6.00
2022-08-16T06:16:44.280Z,5.38
2022-08-16T06:17:46.604Z,5.68
2022-08-16T06:18:49.200Z,6.07
2022-08-16T06:19:53.170Z,9.60
2022-08-16T06:20:57.426Z,6.22
2022-08-16T06:22:01.819Z,7.70
2022-08-16T06:23:17.038Z,6.95
2022-08-16T06:24:55.067Z,5.97
2022-08-16T06:25:43.109Z,5.50
2022-08-16T06:26:45.002Z,5.78
2022-08-16T06:28:00.212Z,5.05
2022-08-16T06:29:03.220Z,5.18
2022-08-16T06:30:07.657Z,5.75
2022-08-16T06:31:13.965Z,6.38
2022-08-16T06:32:27.330Z,5.97
2022-08-16T06:33:41.184Z,5.53
2022-08-16T06:34:57.090Z,5.35
2022-08-16T06:36:08.928Z,4.90
2022-08-16T06:37:13.557Z,5.80
2022-08-16T06:38:32.825Z,4.70
2022-08-16T06:39:46.687Z,5.05
2022-08-16T06:40:52.079Z,5.22
2022-08-16T06:41:54.645Z,4.88
2022-08-16T06:42:57.595Z,5.07
2022-08-16T06:44:01.382Z,4.88
2022-08-16T06:45:04.026Z,5.53
2022-08-16T06:46:10.618Z,4.97
2022-08-16T06:47:17.213Z,4.47
2022-08-16T06:48:21.156Z,4.10
2022-08-16T06:49:35.049Z,5.38
2022-08-16T06:50:38.166Z,5.85
2022-08-16T06:51:45.966Z,3.88
2022-08-16T06:52:58.459Z,4.57
2022-08-16T06:54:14.210Z,5.07
2022-08-16T06:55:16.595Z,3.72
2022-08-16T06:56:23.163Z,4.38
2022-08-16T06:57:25.392Z,4.07
2022-08-16T06:58:31.831Z,4.35
2022-08-16T06:59:48.520Z,5.38
2022-08-16T07:00:54.953Z,4.90
2022-08-16T07:02:00.893Z,5.50
2022-08-16T07:03:03.949Z,4.80
2022-08-16T07:04:31.486Z,5.75
2022-08-16T07:05:42.073Z,5.63
2022-08-16T07:06:46.244Z,4.82
2022-08-16T07:07:52.190Z,5.00
2022-08-16T07:08:56.026Z,5.03
2022-08-16T07:09:59.652Z,5.57
2022-08-16T07:11:01.702Z,5.60
2022-08-16T07:12:05.840Z,5.13
2022-08-16T07:13:08.395Z,4.22
2022-08-16T07:14:25.217Z,4.88
2022-08-16T07:15:28.570Z,4.45
2022-08-16T07:16:31.331Z,4.45
2022-08-16T07:17:33.622Z,4.45
2022-08-16T07:18:37.739Z,4.75
2022-08-16T07:20:35.277Z,5.20
2022-08-16T07:21:24.256Z,4.45
2022-08-16T07:22:38.079Z,4.38
2022-08-16T07:23:43.493Z,4.35
2022-08-16T07:24:48.780Z,4.72
2022-08-16T07:25:52.943Z,5.25
2022-08-16T07:26:56.238Z,4.53
2022-08-16T07:27:59.336Z,4.97
2022-08-16T07:29:02.695Z,4.45
2022-08-16T07:30:38.932Z,4.45
2022-08-16T07:31:37.747Z,4.43
2022-08-16T07:32:40.086Z,4.50
2022-08-16T07:33:55.105Z,5.20
2022-08-16T07:34:56.874Z,4.55
2022-08-16T07:36:00.774Z,4.57
2022-08-16T07:37:06.876Z,6.70
2022-08-16T07:38:10.114Z,6.78
2022-08-16T07:39:15.151Z,7.18
2022-08-16T07:40:17.609Z,5.47
2022-08-16T07:41:20.283Z,5.82
2022-08-16T07:42:28.628Z,5.03
2022-08-16T07:43:40.401Z,5.20
2022-08-16T07:44:49.092Z,5.35
2022-08-16T07:45:54.315Z,5.70
2022-08-16T07:46:56.430Z,5.05
2022-08-16T07:47:59.378Z,5.00
2022-08-16T07:49:14.473Z,4.53
2022-08-16T07:50:57.341Z,4.30
2022-08-16T07:51:39.643Z,5.65
2022-08-16T07:52:41.385Z,5.07
2022-08-16T07:53:49.486Z,5.97
2022-08-16T07:55:05.876Z,5.18
2022-08-16T07:56:07.571Z,4.85
2022-08-16T07:57:11.885Z,5.55
2022-08-16T07:58:18.049Z,6.28
2022-08-16T07:59:21.212Z,5.95
2022-08-16T08:00:25.182Z,5.60
2022-08-16T08:01:31.916Z,5.65
2022-08-16T08:02:33.791Z,5.05
2022-08-16T08:03:39.981Z,5.82
2022-08-16T08:04:43.210Z,5.32
2022-08-16T08:05:45.897Z,5.43
2022-08-16T08:06:51.195Z,5.40
2022-08-16T08:07:54.246Z,5.15
2022-08-16T08:09:02.089Z,5.20
2022-08-16T08:10:05.688Z,5.25
2022-08-16T08:11:13.937Z,4.10
2022-08-16T08:12:32.053Z,5.03
2022-08-16T08:13:42.414Z,5.55
2022-08-16T08:14:46.278Z,6.10
2022-08-16T08:15:52.578Z,6.55
2022-08-16T08:16:54.827Z,5.22
2022-08-16T08:18:00.727Z,4.10
2022-08-16T08:19:20.964Z,5.25
2022-08-16T08:20:28.388Z,6.00
2022-08-16T08:22:00.877Z,6.13
2022-08-16T08:23:00.093Z,5.38
2022-08-16T08:24:09.370Z,5.65
2022-08-16T08:25:13.058Z,5.68
2022-08-16T08:26:19.297Z,5.45
2022-08-16T08:27:23.008Z,5.30
2022-08-16T08:28:25.610Z,5.35
2022-08-16T08:29:37.677Z,6.43
2022-08-16T08:30:51.722Z,5.70
2022-08-16T08:32:04.285Z,5.60
2022-08-16T08:33:27.081Z,5.50
2022-08-16T08:34:29.274Z,4.70
2022-08-16T08:35:32.244Z,4.90
2022-08-16T08:36:37.012Z,4.78
2022-08-16T08:37:54.296Z,4.10
2022-08-16T08:38:57.646Z,4.75
2022-08-16T08:40:02.146Z,4.32
2022-08-16T08:41:08.594Z,5.75
2022-08-16T08:42:13.643Z,5.30
2022-08-16T08:43:27.869Z,5.88
2022-08-16T08:44:31.966Z,4.20
2022-08-16T08:45:53.340Z,4.45
2022-08-16T08:47:00.568Z,5.03
2022-08-16T08:48:05.948Z,3.97
2022-08-16T08:49:08.849Z,4.47
2022-08-16T08:50:12.875Z,4.30
2022-08-16T08:51:36.956Z,4.00
2022-08-16T08:52:40.725Z,3.95
2022-08-16T08:53:43.171Z,4.47
2022-08-16T08:54:46.042Z,3.92
2022-08-16T08:55:59.116Z,4.47
2022-08-16T08:57:01.106Z,4.53
2022-08-16T08:58:04.496Z,4.25
2022-08-16T08:59:13.456Z,4.00
2022-08-16T09:00:21.312Z,4.60
2022-08-16T09:01:31.912Z,4.13
2022-08-16T09:02:39.226Z,4.40
2022-08-16T09:03:40.995Z,4.45
2022-08-16T09:04:44.234Z,4.10
2022-08-16T09:05:51.808Z,4.00
2022-08-16T09:06:54.829Z,4.30
2022-08-16T09:08:01.588Z,4.30
2022-08-16T09:09:09.645Z,4.80
2022-08-16T09:10:21.367Z,4.80
2022-08-16T09:11:34.262Z,4.53
2022-08-16T09:12:46.591Z,4.15
2022-08-16T09:13:49.429Z,4.57
2022-08-16T09:14:53.752Z,4.70
2022-08-16T09:15:56.071Z,4.70
2022-08-16T09:17:01.129Z,4.40
2022-08-16T09:18:26.449Z,3.95
2022-08-16T09:19:32.375Z,4.00
2022-08-16T09:20:36.457Z,4.90
2022-08-16T09:21:59.387Z,4.95
2022-08-16T09:23:02.317Z,4.97
2022-08-16T09:24:09.797Z,4.35
2022-08-16T09:25:15.511Z,4.60
2022-08-16T09:26:45.938Z,5.40
2022-08-16T09:27:56.833Z,4.85
2022-08-16T09:29:15.580Z,4.07
2022-08-16T09:30:34.514Z,4.97
2022-08-16T09:31:43.562Z,4.50
2022-08-16T09:32:47.503Z,4.72
2022-08-16T09:33:52.077Z,4.70
2022-08-16T09:34:53.863Z,5.13
2022-08-16T09:36:01.138Z,4.78
2022-08-16T09:37:02.976Z,4.45
2022-08-16T09:38:22.307Z,4.60
2022-08-16T09:39:41.558Z,4.82
2022-08-16T09:40:47.095Z,4.63
2022-08-16T09:41:53.212Z,4.38
2022-08-16T09:42:59.377Z,4.40
2022-08-16T09:45:09.167Z,5.10
2022-08-16T09:45:25.992Z,4.72
2022-08-16T09:46:45.352Z,4.88
2022-08-16T09:47:56.821Z,4.82
2022-08-16T09:49:03.839Z,4.70
2022-08-16T09:50:11.813Z,5.03
2022-08-16T09:51:15.372Z,4.30
2022-08-16T09:52:17.080Z,4.30
2022-08-16T09:53:23.075Z,4.30
2022-08-16T09:54:32.363Z,4.38
2022-08-16T09:55:44.188Z,5.13
2022-08-16T09:56:52.335Z,5.00
2022-08-16T09:57:58.558Z,4.80
2022-08-16T09:59:05.858Z,4.90
2022-08-16T10:00:44.904Z,5.53
2022-08-16T10:01:38.395Z,4.78
2022-08-16T10:02:48.146Z,5.15
2022-08-16T10:04:02.596Z,5.35
2022-08-16T10:05:06.565Z,5.30
2022-08-16T10:06:11.141Z,5.55
2022-08-16T10:07:15.957Z,4.70
2022-08-16T10:08:26.307Z,5.10
2022-08-16T10:09:44.712Z,4.85
2022-08-16T10:11:05.890Z,4.72
2022-08-16T10:12:30.200Z,4.82
2022-08-16T10:13:35.255Z,4.32
2022-08-16T10:14:36.868Z,4.18
2022-08-16T10:15:40.805Z,5.13
2022-08-16T10:16:45.811Z,4.38
2022-08-16T10:18:01.245Z,4.80
2022-08-16T10:19:07.331Z,4.43
2022-08-16T10:20:18.298Z,4.60
2022-08-16T10:21:22.711Z,4.57
2022-08-16T10:22:25.274Z,5.40
2022-08-16T10:23:29.564Z,4.57
2022-08-16T10:24:31.227Z,4.90
2022-08-16T10:27:17.874Z,5.20
2022-08-16T10:27:18.492Z,5.40
2022-08-16T10:28:27.826Z,4.50
2022-08-16T10:30:01.218Z,4.82
2022-08-16T10:30:58.786Z,4.75
2022-08-16T10:32:01.971Z,4.45
2022-08-16T10:33:05.412Z,5.38
2022-08-16T10:34:30.833Z,4.28
2022-08-16T10:35:33.280Z,5.47
2022-08-16T10:36:38.673Z,4.82
2022-08-16T10:37:41.425Z,4.88
2022-08-16T10:38:44.275Z,4.72
2022-08-16T10:39:45.904Z,4.90
2022-08-16T10:40:49.217Z,5.03
2022-08-16T10:41:51.767Z,5.13
2022-08-16T10:42:54.847Z,4.78
2022-08-16T10:43:56.715Z,5.55
2022-08-16T10:45:00.658Z,5.30
2022-08-16T10:46:04.053Z,5.00
2022-08-16T10:47:26.738Z,4.97
2022-08-16T10:48:33.371Z,4.55
2022-08-16T10:49:36.459Z,4.57
2022-08-16T10:50:39.202Z,4.55
2022-08-16T10:52:01.157Z,4.65
2022-08-16T10:53:07.511Z,4.28
2022-08-16T10:54:29.781Z,4.68
2022-08-16T10:55:40.701Z,4.93
2022-08-16T10:56:55.227Z,5.30
2022-08-16T10:58:11.342Z,4.65
2022-08-16T10:59:32.567Z,5.32
2022-08-16T11:00:40.784Z,5.07
2022-08-16T11:02:21.617Z,4.80
2022-08-16T11:03:42.326Z,5.07
2022-08-16T11:06:00.707Z,4.75
2022-08-16T11:07:08.317Z,4.93
2022-08-16T11:08:13.023Z,5.20
2022-08-16T11:09:24.413Z,4.47
2022-08-16T11:12:14.004Z,4.60
2022-08-16T11:13:58.093Z,5.10
2022-08-16T11:17:32.664Z,4.47
2022-08-16T11:18:48.629Z,4.95
2022-08-16T11:20:41.568Z,4.50
2022-08-16T11:21:29.502Z,4.45
2022-08-16T11:22:47.255Z,4.13
2022-08-16T11:23:58.290Z,5.00
2022-08-16T11:26:06.043Z,4.78
2022-08-16T11:26:25.084Z,4.55
2022-08-16T11:27:35.567Z,4.60
2022-08-16T11:30:01.014Z,5.35
2022-08-16T11:31:04.529Z,4.97
2022-08-16T11:32:07.734Z,4.78
2022-08-16T11:33:14.239Z,4.75
2022-08-16T11:34:19.859Z,4.68
2022-08-16T11:36:59.431Z,4.57
2022-08-16T11:38:46.678Z,4.70
2022-08-16T11:39:28.682Z,4.55
2022-08-16T11:40:34.226Z,4.90
2022-08-16T11:41:38.928Z,4.90
2022-08-16T11:42:45.520Z,4.90
2022-08-16T11:43:48.147Z,5.15
2022-08-16T11:44:52.875Z,4.80
2022-08-16T11:46:43.038Z,5.43
2022-08-16T11:47:24.503Z,4.80
2022-08-16T11:48:28.732Z,4.93
2022-08-16T11:49:30.450Z,4.30
2022-08-16T11:50:33.804Z,4.70
2022-08-16T11:51:36.542Z,4.72
2022-08-16T11:52:38.976Z,4.40
2022-08-16T11:53:49.054Z,4.68
2022-08-16T11:54:53.966Z,4.82
2022-08-16T11:56:01.178Z,5.13
2022-08-16T11:57:09.001Z,4.70
2022-08-16T11:58:14.407Z,4.78
2022-08-16T11:59:16.222Z,4.57
2022-08-16T12:00:34.016Z,4.50
2022-08-16T12:01:55.085Z,4.95
2022-08-16T12:03:03.556Z,4.85
2022-08-16T12:04:05.830Z,4.57
2022-08-16T12:05:10.675Z,4.55
2022-08-16T12:06:24.962Z,4.55
2022-08-16T12:07:33.295Z,4.53
2022-08-16T12:08:36.622Z,4.78
2022-08-16T12:09:43.186Z,4.57
2022-08-16T12:10:46.853Z,4.68
2022-08-16T12:11:53.117Z,4.68
2022-08-16T12:12:58.002Z,5.32
2022-08-16T12:14:06.574Z,4.85
2022-08-16T12:15:08.703Z,5.22
2022-08-16T12:16:17.652Z,4.63
2022-08-16T12:17:22.967Z,5.20
2022-08-16T12:18:30.366Z,4.95
2022-08-16T12:19:35.563Z,4.97
2022-08-16T12:20:41.250Z,4.78
2022-08-16T12:21:58.665Z,4.93
2022-08-16T12:23:02.717Z,4.97
2022-08-16T12:24:05.742Z,5.25
2022-08-16T12:25:10.761Z,4.90
2022-08-16T12:26:14.099Z,4.47
2022-08-16T12:27:15.806Z,5.03
2022-08-16T12:28:36.765Z,5.53
2022-08-16T12:29:42.126Z,5.20
2022-08-16T12:30:46.914Z,5.20
2022-08-16T12:32:00.839Z,5.43
2022-08-16T12:33:16.159Z,5.10
2022-08-16T12:34:30.289Z,5.75
2022-08-16T12:35:33.025Z,5.15
2022-08-16T12:36:36.123Z,4.53
2022-08-16T12:37:38.821Z,4.78
2022-08-16T12:38:48.435Z,5.18
2022-08-16T12:39:52.025Z,5.15
2022-08-16T12:40:55.638Z,5.22
2022-08-16T12:42:00.030Z,6.18
2022-08-16T12:43:04.738Z,5.78
2022-08-16T12:44:07.465Z,5.57
2022-08-16T12:45:13.463Z,5.50
2022-08-16T12:46:17.630Z,5.72
2022-08-16T12:47:38.320Z,5.40
2022-08-16T12:48:58.841Z,5.97
2022-08-16T12:50:02.107Z,5.35
2022-08-16T12:51:13.737Z,5.50
2022-08-16T12:52:32.628Z,5.35
2022-08-16T12:53:39.827Z,5.25
2022-08-16T12:54:42.805Z,5.20
2022-08-16T12:55:44.761Z,5.18
2022-08-16T12:56:48.195Z,5.70
2022-08-16T12:57:58.232Z,5.63
2022-08-16T12:59:03.310Z,4.78
2022-08-16T13:00:07.597Z,5.03
2022-08-16T13:01:11.536Z,5.35
2022-08-16T13:02:22.695Z,5.18
2022-08-16T13:03:40.533Z,5.47
2022-08-16T13:04:42.437Z,5.40
2022-08-16T13:05:55.453Z,5.13
2022-08-16T13:06:59.055Z,5.05
2022-08-16T13:08:00.899Z,4.82
2022-08-16T13:09:20.109Z,5.07
2022-08-16T13:10:36.842Z,5.57
2022-08-16T13:11:49.262Z,5.63
2022-08-16T13:13:00.488Z,5.32
2022-08-16T13:14:02.087Z,5.47
2022-08-16T13:15:10.974Z,5.20
2022-08-16T13:16:20.110Z,5.45
2022-08-16T13:17:26.324Z,4.97
2022-08-16T13:18:34.166Z,5.70
2022-08-16T13:20:06.512Z,5.30
2022-08-16T13:21:01.383Z,5.38
2022-08-16T13:22:04.543Z,5.35
2022-08-16T13:23:11.807Z,5.28
2022-08-16T13:24:18.090Z,5.28
2022-08-16T13:25:23.205Z,5.20
2022-08-16T13:26:27.174Z,4.82
2022-08-16T13:28:01.680Z,5.32
2022-08-16T13:28:52.720Z,5.50
2022-08-16T13:29:57.640Z,5.00
2022-08-16T13:31:00.873Z,5.38
2022-08-16T13:32:06.538Z,5.85
2022-08-16T13:33:16.916Z,5.13
2022-08-16T13:34:18.780Z,4.60
2022-08-16T13:35:22.401Z,5.45
2022-08-16T13:36:48.103Z,5.85
2022-08-16T13:37:49.565Z,5.20
2022-08-16T13:38:53.347Z,4.32
2022-08-16T13:39:56.997Z,5.20
2022-08-16T13:40:58.684Z,5.13
2022-08-16T13:42:02.293Z,5.40
2022-08-16T13:43:04.106Z,5.20
2022-08-16T13:44:09.465Z,5.43
2022-08-16T13:45:15.660Z,5.28
2022-08-16T13:46:18.588Z,5.53
2022-08-16T13:47:20.233Z,5.63
2022-08-16T13:48:25.405Z,5.45
2022-08-16T13:49:28.469Z,5.07
2022-08-16T13:50:51.442Z,5.80
2022-08-16T13:51:56.181Z,5.50
2022-08-16T13:52:58.768Z,5.53
2022-08-16T13:54:04.274Z,5.20
2022-08-16T13:55:06.773Z,5.53
2022-08-16T13:56:24.827Z,5.30
2022-08-16T13:57:53.330Z,5.30
2022-08-16T13:58:55.054Z,5.00
2022-08-16T13:59:57.586Z,5.30
2022-08-16T14:01:01.729Z,5.43
2022-08-16T14:02:06.356Z,5.30
2022-08-16T14:03:09.040Z,5.95
2022-08-16T14:04:26.065Z,4.63
2022-08-16T14:05:29.414Z,4.45
2022-08-16T14:06:31.305Z,5.05
2022-08-16T14:07:35.316Z,5.32
2022-08-16T14:08:43.245Z,4.35
2022-08-16T14:09:45.846Z,4.95
2022-08-16T14:10:48.447Z,4.90
2022-08-16T14:11:53.297Z,4.95
2022-08-16T14:12:56.580Z,5.40
2022-08-16T14:13:59.270Z,4.65
2022-08-16T14:15:02.764Z,4.10
2022-08-16T14:16:04.805Z,4.18
2022-08-16T14:17:16.652Z,4.90
2022-08-16T14:18:19.984Z,5.13
2022-08-16T14:19:23.143Z,4.20
2022-08-16T14:20:25.850Z,4.20
2022-08-16T14:21:34.884Z,4.60
2022-08-16T14:22:42.584Z,5.20
2022-08-16T14:23:44.460Z,5.13
2022-08-16T14:24:49.525Z,4.35
2022-08-16T14:25:54.264Z,4.13
2022-08-16T14:26:56.222Z,4.32
2022-08-16T14:27:59.538Z,3.90
2022-08-16T14:29:03.679Z,4.20
2022-08-16T14:30:08.410Z,4.25
2022-08-16T14:31:10.189Z,4.20
2022-08-16T14:32:32.502Z,3.85
2022-08-16T14:33:35.497Z,3.78
2022-08-16T14:34:37.503Z,4.30
2022-08-16T14:35:48.280Z,4.20
2022-08-16T14:36:52.075Z,3.92
2022-08-16T14:37:57.342Z,4.50
2022-08-16T14:38:59.333Z,4.00
2022-08-16T14:40:03.257Z,4.10
2022-08-16T14:41:06.960Z,4.07
2022-08-16T14:42:15.970Z,4.05
2022-08-16T14:43:19.088Z,4.38
2022-08-16T14:44:21.428Z,4.53
2022-08-16T14:45:26.327Z,4.05
2022-08-16T14:46:28.778Z,4.45
2022-08-16T14:47:34.317Z,4.28
2022-08-16T14:48:37.616Z,4.30
2022-08-16T14:49:40.641Z,4.43
2022-08-16T14:50:43.403Z,4.00
2022-08-16T14:51:46.304Z,4.32
2022-08-16T14:52:55.978Z,4.30
2022-08-16T14:54:11.344Z,4.30
2022-08-16T14:55:14.461Z,4.22
2022-08-16T14:56:38.173Z,4.38
2022-08-16T14:57:39.631Z,4.03
2022-08-16T14:58:42.345Z,3.78
2022-08-16T14:59:49.650Z,3.47
2022-08-16T15:00:53.386Z,4.30
2022-08-16T15:01:58.708Z,3.85
2022-08-16T15:03:09.784Z,3.45
2022-08-16T15:04:12.291Z,4.22
2022-08-16T15:05:35.351Z,4.00
2022-08-16T15:06:36.956Z,3.92
2022-08-16T15:07:44.940Z,3.95
2022-08-16T15:08:46.626Z,4.20
2022-08-16T15:09:59.977Z,3.60
2022-08-16T15:11:04.605Z,3.80
2022-08-16T15:12:07.405Z,4.10